Huvudsida
METAR-TAF:

METAR-TAF

Flygplatser :

Nörvenich, Tyskland

latitud: 50-50N, longitud: 006-40E, höjd: 118 m

Aktuellt väderrapport

Denna rapport gjordes för 31 minuter sedan, klockan 22:20 UTC
Vind 6 kt från nord
Temperatur 15°C
Fuktighet 63%
Tryck 1032 hPa
Sikt 10 km eller mer
Få moln på en höjd av 20000 ft

METAR: ETNN 272220Z 35006KT 9999 FEW200 15/08 Q1032 BLU+

Tid: 00:51 (22:51 UTC)

Väderprognos

Denna rapport gjordes för 51 minuter sedan, klockan 22:00 UTC
Prognos gäller från 27 kl. 23 UTC till 28 kl. 08 UTC
Vind 5 kt från nord/nordväst
Sikt 10 km eller mer
Spridda moln på en höjd av 6000 ft

TAF: ETNN 272200Z 2723/2808 33005KT 9999 NSW SCT060 BY ETGL

Aktuella väderrapporter och prognoser från 4000 flygplatser (METAR- och TAF-rapporter).

De tillgängliga stationerna syns som gula och röda prickar på kartan.

För musen över prickarna för att se namnen på stationerna.

Klicka sedan för att få väderrapporter och prognoser.

För att ändra kartan: Klicka på de gröna knapparna med ett svart kors på för att zooma in; den gröna knappen med ett streck på för att zooma ut; eller på de gröna pilarna för angränsande kartor.


METAR-TAF: